May 23, 2022

Time Code Weather Temp. Visibility Clouds Wind METAR/SPECI
10:00 am
V
66 °F 6¼ mi+ - Var   Var 2 kt METAR LESU 230800Z VRB02KT 9999 FEW093 19/04 Q1009

May 22, 2022

Time Code Weather Temp. Visibility Clouds Wind METAR/SPECI
7:30 pm
V
88 °F 6¼ mi+ - 270°   270° 10 kt METAR LESU 221730Z 27010KT 230V300 CAVOK 31/03 Q1012
7:00 pm
V
90 °F 6¼ mi+ - 240°   240° 11 kt METAR LESU 221700Z 24011KT 210V270 CAVOK 32/01 Q1012
6:30 pm
V
90 °F 6¼ mi+ - 190°   190° 13 kt METAR LESU 221630Z 19013KT 160V230 CAVOK 32/01 Q1012
6:00 pm
V
91 °F 6¼ mi+ - 240°   240° 9 kt METAR LESU 221600Z 24009KT 190V270 CAVOK 33/01 Q1012
5:30 pm
V
93 °F 6¼ mi+ - 210°   210° 7 kt METAR LESU 221530Z 21007KT 140V260 CAVOK 34/01 Q1012
5:00 pm
V
91 °F 6¼ mi+ - 240°   240° 12 kt METAR LESU 221500Z 24012KT 210V280 CAVOK 33/00 Q1012
4:30 pm
V
91 °F 6¼ mi+ - 250°   250° 12 kt METAR LESU 221430Z 25012KT 210V290 CAVOK 33/02 Q1013
4:00 pm
V
90 °F 6¼ mi+ - 200°   200° 11 kt METAR LESU 221400Z 20011KT 180V240 CAVOK 32/02 Q1013
3:30 pm
V
95 °F 6¼ mi+ - 200°   200° 8 kt METAR LESU 221330Z 20008KT 170V270 CAVOK 35/03 Q1013
3:00 pm
V
93 °F 6¼ mi+ - 180°   180° 11 kt METAR LESU 221300Z 18011KT 140V210 CAVOK 34/01 Q1013
2:30 pm
V
93 °F 6¼ mi+ - 180°   180° 11 kt METAR LESU 221230Z 18011KT 140V220 CAVOK 34/01 Q1014
2:00 pm
V
93 °F 6¼ mi+ - 190°   190° 12 kt METAR LESU 221200Z 19012KT 160V230 CAVOK 34/02 Q1014
1:30 pm
V
91 °F 6¼ mi+ - 180°   180° 12 kt METAR LESU 221130Z 18012KT 150V210 CAVOK 33/02 Q1015
1:00 pm
V
90 °F 6¼ mi+ - 180°   180° 5 kt METAR LESU 221100Z 18005KT 080V230 CAVOK 32/04 Q1015
12:30 pm
V
86 °F 6¼ mi+ - Var   Var 2 kt METAR LESU 221030Z VRB02KT CAVOK 30/06 Q1016
12:00 pm
V
82 °F 6¼ mi+ - 170°   170° 3 kt METAR LESU 221000Z 17003KT 120V230 CAVOK 28/07 Q1016
11:30 am
V
79 °F 6¼ mi+ - Var   Var 2 kt METAR LESU 220930Z VRB02KT CAVOK 26/08 Q1016
11:00 am
V
75 °F 6¼ mi+ - Var   Var 2 kt METAR LESU 220900Z VRB02KT CAVOK 24/08 Q1017
10:30 am
V
73 °F 6¼ mi+ - Var   Var 3 kt METAR LESU 220830Z VRB03KT CAVOK 23/07 Q1018
10:00 am
V
70 °F 6¼ mi+ - 080°   080° 4 kt METAR LESU 220800Z 08004KT 040V140 CAVOK 21/06 Q1018

May 21, 2022

Time Code Weather Temp. Visibility Clouds Wind METAR/SPECI
5:30 pm
V
91 °F 6¼ mi+ - 200°   200° 11 kt METAR LESU 211530Z 20011KT 170V230 9999 FEW090CB 33/03 Q1020
5:00 pm
V
93 °F 6¼ mi+ - 200°   200° 11 kt METAR LESU 211500Z 20011KT 170V250 9999 FEW090TCU 34/04 Q1020
4:30 pm
V
93 °F 6¼ mi+ - 190°   190° 11 kt METAR LESU 211430Z 19011KT 160V220 9999 FEW090TCU 34/04 Q1021
4:00 pm
V
93 °F 6¼ mi+ - 200°   200° 10 kt METAR LESU 211400Z 20010KT 170V280 CAVOK 34/03 Q1021
3:30 pm
V
93 °F 6¼ mi+ - 210°   210° 10 kt METAR LESU 211330Z 21010KT 180V250 CAVOK 34/02 Q1021
3:00 pm
V
93 °F 6¼ mi+ - 200°   200° 10 kt METAR LESU 211300Z 20010KT 140V300 CAVOK 34/02 Q1022
2:30 pm
V
91 °F 6¼ mi+ - 190°   190° 13 kt METAR LESU 211230Z 19013KT 140V230 CAVOK 33/02 Q1022
2:00 pm
V
90 °F 6¼ mi+ - 190°   190° 12 kt METAR LESU 211200Z 19012KT 160V230 CAVOK 32/01 Q1022
1:30 pm
V
91 °F 6¼ mi+ - 210°   210° 9 kt METAR LESU 211130Z 21009KT 180V260 CAVOK 33/04 Q1023
1:00 pm
V
86 °F 6¼ mi+ - 200°   200° 4 kt METAR LESU 211100Z 20004KT 140V270 CAVOK 30/05 Q1023
12:30 pm
V
82 °F 6¼ mi+ - Var   Var 2 kt METAR LESU 211030Z VRB02KT CAVOK 28/06 Q1024
12:00 pm
V
79 °F 6¼ mi+ - Var   Var 2 kt METAR LESU 211000Z VRB02KT CAVOK 26/07 Q1024
11:30 am
V
77 °F 6¼ mi+ - Var   Var 1 kt METAR LESU 210930Z VRB01KT CAVOK 25/08 Q1025
11:00 am
V
73 °F 6¼ mi+ - 120°   120° 3 kt METAR LESU 210900Z 12003KT 030V180 CAVOK 23/06 Q1025
Older data

Download our app

Easy access to all aviation weather on your mobile phone and tablet.
With many features not available on the website, like offline support and a personal airport list.

We and third parties follow your internet behavior on our website with cookies. If you continue, we assume you agree with our cookie policy. Learn more